Mischief — 2JNE4 — position and weather

sailwx.info

Track history (hours):
 
Tides and Currents Weather Stations Pressure Air Temp Water Temp Dewpoint Dewpoint Depression Visibility Wind Speed Wind Dir Waves Ship Positions

Mischief

Last reported at 2018-Jan-31 12:42 UTC. Time now 2018-Jun-20 13:20 UTC.
Position N 09°13' W 079°55'.
Warning: this ship's position is months out of date.

Length 15 m.

Type: Sailing vessel. MMSI: 235117312.

Date/timePositionNaut miles runAvg speedWind from/ knotsBaromVisibWave heightAir tempDewpointWater temp
2018-Jan-31 12:42N 09°13' W 079°55'4 0.2
2018-Jan-30 21:13N 09°17' W 079°55'0 1.5
2018-Jan-30 21:00N 09°17' W 079°55'3 5.9
2018-Jan-30 20:30N 09°20' W 079°55'1 1.4
2018-Jan-30 20:00N 09°21' W 079°55'0 0.0
2018-Jan-30 19:27N 09°21' W 079°55'1 1.3
2018-Jan-30 19:00N 09°21' W 079°55'2 4.1
2018-Jan-30 18:30N 09°22' W 079°57'0 0.0
2018-Jan-30 18:00N 09°22' W 079°57'0 0.0
2018-Jan-30 17:27N 09°22' W 079°57'0 0.0
2018-Jan-30 17:00N 09°22' W 079°57'0 0.0
2018-Jan-30 16:30N 09°22' W 079°57'0 0.0
2018-Jan-30 16:00N 09°22' W 079°57'0 0.0
2018-Jan-30 15:30N 09°22' W 079°57'0 0.0
2018-Jan-30 15:00N 09°22' W 079°57'0 0.0
2018-Jan-30 14:30N 09°22' W 079°57'0 0.0
2018-Jan-30 13:29N 09°22' W 079°57'0 0.0
2018-Jan-30 12:59N 09°22' W 079°57'0 0.0
2018-Jan-30 12:29N 09°22' W 079°57'0 0.0
2018-Jan-30 11:59N 09°22' W 079°57'0 0.0
2018-Jan-30 11:29N 09°22' W 079°57'0 0.0
2018-Jan-30 10:26N 09°22' W 079°57'0 0.0
2018-Jan-30 09:26N 09°22' W 079°57'0 0.0
2018-Jan-30 08:59N 09°22' W 079°57'0 0.0
2018-Jan-30 08:29N 09°22' W 079°57'0 0.0
2018-Jan-30 07:59N 09°22' W 079°57'0 0.0
2018-Jan-30 07:29N 09°22' W 079°57'0 0.0
2018-Jan-30 06:59N 09°22' W 079°57'0 0.0
2018-Jan-30 06:29N 09°22' W 079°57'0 0.0
2018-Jan-30 05:59N 09°22' W 079°57'0 0.0
2018-Jan-30 05:29N 09°22' W 079°57'0 0.0
2018-Jan-30 04:59N 09°22' W 079°57'0 0.0
2018-Jan-30 04:29N 09°22' W 079°57'0 0.0
2018-Jan-30 03:59N 09°22' W 079°57'0 0.0
2018-Jan-30 03:29N 09°22' W 079°57'0 0.0
2018-Jan-30 02:59N 09°22' W 079°57'0 0.0
2018-Jan-30 02:23N 09°22' W 079°57'0 0.0
2018-Jan-30 01:59N 09°22' W 079°57'0 0.0
2018-Jan-30 01:05N 09°22' W 079°57'0 0.0
2018-Jan-30 00:53N 09°22' W 079°57'0 0.0
2018-Jan-30 00:14N 09°22' W 079°57'0 0.0
2018-Jan-29 23:41N 09°22' W 079°57'0 0.0
2018-Jan-29 23:23N 09°22' W 079°57'0 0.0
2018-Jan-29 22:59N 09°22' W 079°57'0 0.0
2018-Jan-29 22:29N 09°22' W 079°57'0 0.0
2018-Jan-29 21:59N 09°22' W 079°57'0 0.0
2018-Jan-29 21:29N 09°22' W 079°57'0 0.0
2018-Jan-29 20:59N 09°22' W 079°57'0 0.0
2018-Jan-29 20:29N 09°22' W 079°57'0 0.0
2018-Jan-29 19:59N 09°22' W 079°57'0 0.0
2018-Jan-29 19:29N 09°22' W 079°57'0 0.0
2018-Jan-29 18:59N 09°22' W 079°57'0 0.0
2018-Jan-29 18:29N 09°22' W 079°57'0 0.0
2018-Jan-29 17:59N 09°22' W 079°57'0 0.0
2018-Jan-29 17:30N 09°22' W 079°57'0 0.0
2018-Jan-29 17:00N 09°22' W 079°57'0 0.0
2018-Jan-29 16:27N 09°22' W 079°57'0 0.0
2018-Jan-29 16:00N 09°22' W 079°57'0 0.0
2018-Jan-29 15:30N 09°22' W 079°57'0 0.0
2018-Jan-29 14:57N 09°22' W 079°57'0 0.0
2018-Jan-29 14:21N 09°22' W 079°57'0 0.0
2018-Jan-29 14:00N 09°22' W 079°57'0 0.0
2018-Jan-29 13:27N 09°22' W 079°57'0 0.0
2018-Jan-29 12:55N 09°22' W 079°57'0 0.0
2018-Jan-29 12:25N 09°22' W 079°57'0 0.0
2018-Jan-29 11:58N 09°22' W 079°57'0 0.0
2018-Jan-29 11:25N 09°22' W 079°57'0 0.0
2018-Jan-29 10:58N 09°22' W 079°57'0 0.0
2018-Jan-29 10:28N 09°22' W 079°57'0 0.0
2018-Jan-29 09:58N 09°22' W 079°57'0 0.0
2018-Jan-29 09:28N 09°22' W 079°57'0 0.0
2018-Jan-29 08:58N 09°22' W 079°57'0 0.0
2018-Jan-29 08:28N 09°22' W 079°57'0 0.0
2018-Jan-29 07:58N 09°22' W 079°57'0 0.0
2018-Jan-29 07:22N 09°22' W 079°57'0 0.0
2018-Jan-29 06:52N 09°22' W 079°57'0 0.0
2018-Jan-29 06:28N 09°22' W 079°57'0 0.0
2018-Jan-29 05:58N 09°22' W 079°57'0 0.0
2018-Jan-29 05:28N 09°22' W 079°57'0 0.0
2018-Jan-29 04:58N 09°22' W 079°57'0 0.0
2018-Jan-29 04:28N 09°22' W 079°57'0 0.0
2018-Jan-29 03:58N 09°22' W 079°57'0 0.0
2018-Jan-29 03:25N 09°22' W 079°57'0 0.0
2018-Jan-29 02:46N 09°22' W 079°57'0 0.0
2018-Jan-29 02:28N 09°22' W 079°57'0 0.0
2018-Jan-29 01:58N 09°22' W 079°57'0 0.0
2018-Jan-29 01:28N 09°22' W 079°57'0 0.0
2018-Jan-29 00:58N 09°22' W 079°57'0 0.0
2018-Jan-29 00:28N 09°22' W 079°57'0 0.0
2018-Jan-28 23:57N 09°22' W 079°57'0 0.0
2018-Jan-28 23:27N 09°22' W 079°57'0 0.0
2018-Jan-28 23:00N 09°22' W 079°57'0 0.0
2018-Jan-28 22:29N 09°22' W 079°57'0 0.0
2018-Jan-28 21:52N 09°22' W 079°57'0 0.0
2018-Jan-28 21:28N 09°22' W 079°57'0 0.0
2018-Jan-28 20:58N 09°22' W 079°57'0 0.0
2018-Jan-28 20:25N 09°22' W 079°57'0 0.0
2018-Jan-28 19:58N 09°22' W 079°57'0 0.0
2018-Jan-28 19:19N 09°22' W 079°57'0 0.0
2018-Jan-28 18:52N 09°22' W 079°57'0 0.0
2018-Jan-28 18:22N 09°22' W 079°57'0 0.0
2018-Jan-28 17:58N 09°22' W 079°57'0 0.0
2018-Jan-28 17:28N 09°22' W 079°57'0 0.0
2018-Jan-28 16:58N 09°22' W 079°57'0 0.0
2018-Jan-28 16:28N 09°22' W 079°57'0 0.0
2018-Jan-28 15:58N 09°22' W 079°57'0 0.0
2018-Jan-28 15:28N 09°22' W 079°57'0 0.0
2018-Jan-28 14:58N 09°22' W 079°57'0 0.0
2018-Jan-28 14:28N 09°22' W 079°57'0 0.0
2018-Jan-28 13:58N 09°22' W 079°57'0 0.0
2018-Jan-28 13:28N 09°22' W 079°57'0 0.0
2018-Jan-28 12:58N 09°22' W 079°57'0 0.0
2018-Jan-28 12:28N 09°22' W 079°57'0 0.0
2018-Jan-28 11:58N 09°22' W 079°57'0 0.0
2018-Jan-28 11:28N 09°22' W 079°57'0 0.0
2018-Jan-28 10:58N 09°22' W 079°57'0 0.0
2018-Jan-28 10:30N 09°22' W 079°57'0 0.0
2018-Jan-28 09:57N 09°22' W 079°57'0 0.0
2018-Jan-28 09:30N 09°22' W 079°57'0 0.0
2018-Jan-28 09:00N 09°22' W 079°57'0 0.0
2018-Jan-28 08:30N 09°22' W 079°57'0 0.0
2018-Jan-28 08:00N 09°22' W 079°57'0 0.0
2018-Jan-28 07:30N 09°22' W 079°57'0 0.0
2018-Jan-28 07:00N 09°22' W 079°57'0 0.0
2018-Jan-28 06:27N 09°22' W 079°57'0 0.0
2018-Jan-28 06:00N 09°22' W 079°57'0 0.0
2018-Jan-28 05:30N 09°22' W 079°57'0 0.0
2018-Jan-28 05:00N 09°22' W 079°57'0 0.0
2018-Jan-28 04:30N 09°22' W 079°57'0 0.0
2018-Jan-28 04:00N 09°22' W 079°57'0 0.0
2018-Jan-28 03:27N 09°22' W 079°57'0 0.0
2018-Jan-28 03:00N 09°22' W 079°57'0 0.0
2018-Jan-28 02:30N 09°22' W 079°57'0 0.0
2018-Jan-28 02:00N 09°22' W 079°57'0 0.0
2018-Jan-28 01:30N 09°22' W 079°57'0 0.0
2018-Jan-28 01:00N 09°22' W 079°57'0 0.0
2018-Jan-28 00:21N 09°22' W 079°57'0 0.0
2018-Jan-27 23:57N 09°22' W 079°57'0 0.0
2018-Jan-27 23:30N 09°22' W 079°57'0 0.0
2018-Jan-27 23:00N 09°22' W 079°57'0 0.0
2018-Jan-27 22:30N 09°22' W 079°57'0 0.0
2018-Jan-27 21:57N 09°22' W 079°57'0 0.0
2018-Jan-27 20:42N 09°22' W 079°57'0 0.0
2018-Jan-27 20:30N 09°22' W 079°57'0 0.0
2018-Jan-27 18:21N 09°22' W 079°57'0 0.0
2018-Jan-27 18:00N 09°22' W 079°57'0 0.0
2018-Jan-27 17:30N 09°22' W 079°57'0 0.0
2018-Jan-27 17:00N 09°22' W 079°57'0 0.0
2018-Jan-27 16:30N 09°22' W 079°57'0 0.0
2018-Jan-27 16:00N 09°22' W 079°57'0 0.0
2018-Jan-27 15:30N 09°22' W 079°57'0 0.0
2018-Jan-27 14:57N 09°22' W 079°57'0 0.0
2018-Jan-27 14:30N 09°22' W 079°57'0 0.0
2018-Jan-27 14:00N 09°22' W 079°57'0 0.0
2018-Jan-27 13:27N 09°22' W 079°57'0 0.0
2018-Jan-27 13:00N 09°22' W 079°57'0 0.0
2018-Jan-27 12:30N 09°22' W 079°57'0 0.0
2018-Jan-27 11:58N 09°22' W 079°57'0 0.0
2018-Jan-27 11:28N 09°22' W 079°57'0 0.0
2018-Jan-27 10:58N 09°22' W 079°57'0 0.0
2018-Jan-27 10:30N 09°22' W 079°57'0 0.0
2018-Jan-27 10:00N 09°22' W 079°57'0 0.0
2018-Jan-27 09:30N 09°22' W 079°57'0 0.0
2018-Jan-27 09:00N 09°22' W 079°57'0 0.0
2018-Jan-27 08:30N 09°22' W 079°57'0 0.0
2018-Jan-27 08:00N 09°22' W 079°57'0 0.0
2018-Jan-27 07:30N 09°22' W 079°57'0 0.0
2018-Jan-27 07:00N 09°22' W 079°57'0 0.0
2018-Jan-27 06:30N 09°22' W 079°57'0 0.0
2018-Jan-27 05:58N 09°22' W 079°57'0 0.0
2018-Jan-27 05:28N 09°22' W 079°57'0 0.0
2018-Jan-27 04:58N 09°22' W 079°57'0 0.0
2018-Jan-27 04:28N 09°22' W 079°57'0 0.0
2018-Jan-27 03:58N 09°22' W 079°57'0 0.0
2018-Jan-27 03:31N 09°22' W 079°57'0 0.0
2018-Jan-27 02:57N 09°22' W 079°57'0 0.0
2018-Jan-27 02:21N 09°22' W 079°57'0 0.0
2018-Jan-27 01:57N 09°22' W 079°57'0 0.0
2018-Jan-27 01:30N 09°22' W 079°57'0 0.0
2018-Jan-27 00:54N 09°22' W 079°57'0 0.0
2018-Jan-27 00:30N 09°22' W 079°57'0 0.0
2018-Jan-26 23:57N 09°22' W 079°57'0 0.0
2018-Jan-26 23:09N 09°22' W 079°57'0 0.0
2018-Jan-26 23:00N 09°22' W 079°57'0 0.0
2018-Jan-26 22:27N 09°22' W 079°57'0 0.0
2018-Jan-26 22:00N 09°22' W 079°57'0 0.0
2018-Jan-26 21:25N 09°22' W 079°57'0 0.0
2018-Jan-26 20:58N 09°22' W 079°57'0 0.0
2018-Jan-26 20:28N 09°22' W 079°57'0 0.0
2018-Jan-26 19:58N 09°22' W 079°57'0 0.0
2018-Jan-26 19:25N 09°22' W 079°57'0 0.0
2018-Jan-26 18:58N 09°22' W 079°57'0 0.0
2018-Jan-26 18:28N 09°22' W 079°57'0 0.0
2018-Jan-26 17:58N 09°22' W 079°57'0 0.0
2018-Jan-26 17:25N 09°22' W 079°57'0 0.0
2018-Jan-26 16:58N 09°22' W 079°57'0 0.0
2018-Jan-26 16:28N 09°22' W 079°57'0 0.0
2018-Jan-26 15:59N 09°22' W 079°57'0 0.0
2018-Jan-26 15:29N 09°22' W 079°57'0 0.0
2018-Jan-26 14:59N 09°22' W 079°57'0 0.0
2018-Jan-26 14:29N 09°22' W 079°57'0 0.0
2018-Jan-26 13:59N 09°22' W 079°57'0 0.0
2018-Jan-26 13:29N 09°22' W 079°57'0 0.0
2018-Jan-26 12:56N 09°22' W 079°57'0 0.0
2018-Jan-26 12:30N 09°22' W 079°57'0 0.0
2018-Jan-26 11:59N 09°22' W 079°57'0 0.0
2018-Jan-26 11:29N 09°22' W 079°57'0 0.0
2018-Jan-26 10:59N 09°22' W 079°57'0 0.0
2018-Jan-26 10:29N 09°22' W 079°57'0 0.0
2018-Jan-26 09:59N 09°22' W 079°57'0 0.0
2018-Jan-26 09:29N 09°22' W 079°57'0 0.0
2018-Jan-26 08:59N 09°22' W 079°57'0 0.0
2018-Jan-26 08:29N 09°22' W 079°57'0 0.0
2018-Jan-26 07:59N 09°22' W 079°57'0 0.0
2018-Jan-26 07:26N 09°22' W 079°57'0 0.0
2018-Jan-26 06:59N 09°22' W 079°57'0 0.0
2018-Jan-26 06:29N 09°22' W 079°57'0 0.0
2018-Jan-26 05:56N 09°22' W 079°57'0 0.0
2018-Jan-26 05:29N 09°22' W 079°57'0 0.0
2018-Jan-26 04:59N 09°22' W 079°57'0 0.0
2018-Jan-26 04:29N 09°22' W 079°57'0 0.0
2018-Jan-26 03:59N 09°22' W 079°57'0 0.0
2018-Jan-26 03:29N 09°22' W 079°57'0 0.0
2018-Jan-26 02:56N 09°22' W 079°57'0 0.0
2018-Jan-26 02:17N 09°22' W 079°57'0 0.0
2018-Jan-26 01:59N 09°22' W 079°57'0 0.0
2018-Jan-26 01:26N 09°22' W 079°57'0 0.0
2018-Jan-26 00:56N 09°22' W 079°57'0 0.0
2018-Jan-26 00:29N 09°22' W 079°57'0 0.0
2018-Jan-25 23:59N 09°22' W 079°57'0 0.0
2018-Jan-25 23:26N 09°22' W 079°57'0 0.0
2018-Jan-25 22:50N 09°22' W 079°57'0 0.0
2018-Jan-25 22:26N 09°22' W 079°57'0 0.0
2018-Jan-25 21:58N 09°22' W 079°57'0 0.0
2018-Jan-25 21:28N 09°22' W 079°57'0 0.0
2018-Jan-25 20:58N 09°22' W 079°57'0 0.0
2018-Jan-25 20:28N 09°22' W 079°57'0 0.0
2018-Jan-25 20:00N 09°22' W 079°57'0 0.0
2018-Jan-25 19:30N 09°22' W 079°57'0 0.2
2018-Jan-25 18:53N 09°22' W 079°57'2 4.1
2018-Jan-25 18:30N 09°23' W 079°56'3 5.9
2018-Jan-25 17:59N 09°25' W 079°53'  
Track history (hours):
 
Tides and Currents Weather Stations Pressure Air Temp Water Temp Dewpoint Dewpoint Depression Visibility Wind Speed Wind Dir Waves Ship Positions

Mischief

Last reported at 2018-Jan-31 12:42 UTC. Time now 2018-Jun-20 13:20 UTC.
Position N 09°13' W 079°55'.
Warning: this ship's position is months out of date.

Length 15 m.

Type: Sailing vessel. MMSI: 235117312.

Date/timePositionNaut miles runAvg speedWind from/ knotsBaromVisibWave heightAir tempDewpointWater temp
2018-Jan-31 12:42N 09°13' W 079°55'4 0.2
2018-Jan-30 21:13N 09°17' W 079°55'0 1.5
2018-Jan-30 21:00N 09°17' W 079°55'3 5.9
2018-Jan-30 20:30N 09°20' W 079°55'1 1.4
2018-Jan-30 20:00N 09°21' W 079°55'0 0.0
2018-Jan-30 19:27N 09°21' W 079°55'1 1.3
2018-Jan-30 19:00N 09°21' W 079°55'2 4.1
2018-Jan-30 18:30N 09°22' W 079°57'0 0.0
2018-Jan-30 18:00N 09°22' W 079°57'0 0.0
2018-Jan-30 17:27N 09°22' W 079°57'0 0.0
2018-Jan-30 17:00N 09°22' W 079°57'0 0.0
2018-Jan-30 16:30N 09°22' W 079°57'0 0.0
2018-Jan-30 16:00N 09°22' W 079°57'0 0.0
2018-Jan-30 15:30N 09°22' W 079°57'0 0.0
2018-Jan-30 15:00N 09°22' W 079°57'0 0.0
2018-Jan-30 14:30N 09°22' W 079°57'0 0.0
2018-Jan-30 13:29N 09°22' W 079°57'0 0.0
2018-Jan-30 12:59N 09°22' W 079°57'0 0.0
2018-Jan-30 12:29N 09°22' W 079°57'0 0.0
2018-Jan-30 11:59N 09°22' W 079°57'0 0.0
2018-Jan-30 11:29N 09°22' W 079°57'0 0.0
2018-Jan-30 10:26N 09°22' W 079°57'0 0.0
2018-Jan-30 09:26N 09°22' W 079°57'0 0.0
2018-Jan-30 08:59N 09°22' W 079°57'0 0.0
2018-Jan-30 08:29N 09°22' W 079°57'0 0.0
2018-Jan-30 07:59N 09°22' W 079°57'0 0.0
2018-Jan-30 07:29N 09°22' W 079°57'0 0.0
2018-Jan-30 06:59N 09°22' W 079°57'0 0.0
2018-Jan-30 06:29N 09°22' W 079°57'0 0.0
2018-Jan-30 05:59N 09°22' W 079°57'0 0.0
2018-Jan-30 05:29N 09°22' W 079°57'0 0.0
2018-Jan-30 04:59N 09°22' W 079°57'0 0.0
2018-Jan-30 04:29N 09°22' W 079°57'0 0.0
2018-Jan-30 03:59N 09°22' W 079°57'0 0.0
2018-Jan-30 03:29N 09°22' W 079°57'0 0.0
2018-Jan-30 02:59N 09°22' W 079°57'0 0.0
2018-Jan-30 02:23N 09°22' W 079°57'0 0.0
2018-Jan-30 01:59N 09°22' W 079°57'0 0.0
2018-Jan-30 01:05N 09°22' W 079°57'0 0.0
2018-Jan-30 00:53N 09°22' W 079°57'0 0.0
2018-Jan-30 00:14N 09°22' W 079°57'0 0.0
2018-Jan-29 23:41N 09°22' W 079°57'0 0.0
2018-Jan-29 23:23N 09°22' W 079°57'0 0.0
2018-Jan-29 22:59N 09°22' W 079°57'0 0.0
2018-Jan-29 22:29N 09°22' W 079°57'0 0.0
2018-Jan-29 21:59N 09°22' W 079°57'0 0.0
2018-Jan-29 21:29N 09°22' W 079°57'0 0.0
2018-Jan-29 20:59N 09°22' W 079°57'0 0.0
2018-Jan-29 20:29N 09°22' W 079°57'0 0.0
2018-Jan-29 19:59N 09°22' W 079°57'0 0.0
2018-Jan-29 19:29N 09°22' W 079°57'0 0.0
2018-Jan-29 18:59N 09°22' W 079°57'0 0.0
2018-Jan-29 18:29N 09°22' W 079°57'0 0.0
2018-Jan-29 17:59N 09°22' W 079°57'0 0.0
2018-Jan-29 17:30N 09°22' W 079°57'0 0.0
2018-Jan-29 17:00N 09°22' W 079°57'0 0.0
2018-Jan-29 16:27N 09°22' W 079°57'0 0.0
2018-Jan-29 16:00N 09°22' W 079°57'0 0.0
2018-Jan-29 15:30N 09°22' W 079°57'0 0.0
2018-Jan-29 14:57N 09°22' W 079°57'0 0.0
2018-Jan-29 14:21N 09°22' W 079°57'0 0.0
2018-Jan-29 14:00N 09°22' W 079°57'0 0.0
2018-Jan-29 13:27N 09°22' W 079°57'0 0.0
2018-Jan-29 12:55N 09°22' W 079°57'0 0.0
2018-Jan-29 12:25N 09°22' W 079°57'0 0.0
2018-Jan-29 11:58N 09°22' W 079°57'0 0.0
2018-Jan-29 11:25N 09°22' W 079°57'0 0.0
2018-Jan-29 10:58N 09°22' W 079°57'0 0.0
2018-Jan-29 10:28N 09°22' W 079°57'0 0.0
2018-Jan-29 09:58N 09°22' W 079°57'0 0.0
2018-Jan-29 09:28N 09°22' W 079°57'0 0.0
2018-Jan-29 08:58N 09°22' W 079°57'0 0.0
2018-Jan-29 08:28N 09°22' W 079°57'0 0.0
2018-Jan-29 07:58N 09°22' W 079°57'0 0.0
2018-Jan-29 07:22N 09°22' W 079°57'0 0.0
2018-Jan-29 06:52N 09°22' W 079°57'0 0.0
2018-Jan-29 06:28N 09°22' W 079°57'0 0.0
2018-Jan-29 05:58N 09°22' W 079°57'0 0.0
2018-Jan-29 05:28N 09°22' W 079°57'0 0.0
2018-Jan-29 04:58N 09°22' W 079°57'0 0.0
2018-Jan-29 04:28N 09°22' W 079°57'0 0.0
2018-Jan-29 03:58N 09°22' W 079°57'0 0.0
2018-Jan-29 03:25N 09°22' W 079°57'0 0.0
2018-Jan-29 02:46N 09°22' W 079°57'0 0.0
2018-Jan-29 02:28N 09°22' W 079°57'0 0.0
2018-Jan-29 01:58N 09°22' W 079°57'0 0.0
2018-Jan-29 01:28N 09°22' W 079°57'0 0.0
2018-Jan-29 00:58N 09°22' W 079°57'0 0.0
2018-Jan-29 00:28N 09°22' W 079°57'0 0.0
2018-Jan-28 23:57N 09°22' W 079°57'0 0.0
2018-Jan-28 23:27N 09°22' W 079°57'0 0.0
2018-Jan-28 23:00N 09°22' W 079°57'0 0.0
2018-Jan-28 22:29N 09°22' W 079°57'0 0.0
2018-Jan-28 21:52N 09°22' W 079°57'0 0.0
2018-Jan-28 21:28N 09°22' W 079°57'0 0.0
2018-Jan-28 20:58N 09°22' W 079°57'0 0.0
2018-Jan-28 20:25N 09°22' W 079°57'0 0.0
2018-Jan-28 19:58N 09°22' W 079°57'0 0.0
2018-Jan-28 19:19N 09°22' W 079°57'0 0.0
2018-Jan-28 18:52N 09°22' W 079°57'0 0.0
2018-Jan-28 18:22N 09°22' W 079°57'0 0.0
2018-Jan-28 17:58N 09°22' W 079°57'0 0.0
2018-Jan-28 17:28N 09°22' W 079°57'0 0.0
2018-Jan-28 16:58N 09°22' W 079°57'0 0.0
2018-Jan-28 16:28N 09°22' W 079°57'0 0.0
2018-Jan-28 15:58N 09°22' W 079°57'0 0.0
2018-Jan-28 15:28N 09°22' W 079°57'0 0.0
2018-Jan-28 14:58N 09°22' W 079°57'0 0.0
2018-Jan-28 14:28N 09°22' W 079°57'0 0.0
2018-Jan-28 13:58N 09°22' W 079°57'0 0.0
2018-Jan-28 13:28N 09°22' W 079°57'0 0.0
2018-Jan-28 12:58N 09°22' W 079°57'0 0.0
2018-Jan-28 12:28N 09°22' W 079°57'0 0.0
2018-Jan-28 11:58N 09°22' W 079°57'0 0.0
2018-Jan-28 11:28N 09°22' W 079°57'0 0.0
2018-Jan-28 10:58N 09°22' W 079°57'0 0.0
2018-Jan-28 10:30N 09°22' W 079°57'0 0.0
2018-Jan-28 09:57N 09°22' W 079°57'0 0.0
2018-Jan-28 09:30N 09°22' W 079°57'0 0.0
2018-Jan-28 09:00N 09°22' W 079°57'0 0.0
2018-Jan-28 08:30N 09°22' W 079°57'0 0.0
2018-Jan-28 08:00N 09°22' W 079°57'0 0.0
2018-Jan-28 07:30N 09°22' W 079°57'0 0.0
2018-Jan-28 07:00N 09°22' W 079°57'0 0.0
2018-Jan-28 06:27N 09°22' W 079°57'0 0.0
2018-Jan-28 06:00N 09°22' W 079°57'0 0.0
2018-Jan-28 05:30N 09°22' W 079°57'0 0.0
2018-Jan-28 05:00N 09°22' W 079°57'0 0.0
2018-Jan-28 04:30N 09°22' W 079°57'0 0.0
2018-Jan-28 04:00N 09°22' W 079°57'0 0.0
2018-Jan-28 03:27N 09°22' W 079°57'0 0.0
2018-Jan-28 03:00N 09°22' W 079°57'0 0.0
2018-Jan-28 02:30N 09°22' W 079°57'0 0.0
2018-Jan-28 02:00N 09°22' W 079°57'0 0.0
2018-Jan-28 01:30N 09°22' W 079°57'0 0.0
2018-Jan-28 01:00N 09°22' W 079°57'0 0.0
2018-Jan-28 00:21N 09°22' W 079°57'0 0.0
2018-Jan-27 23:57N 09°22' W 079°57'0 0.0
2018-Jan-27 23:30N 09°22' W 079°57'0 0.0
2018-Jan-27 23:00N 09°22' W 079°57'0 0.0
2018-Jan-27 22:30N 09°22' W 079°57'0 0.0
2018-Jan-27 21:57N 09°22' W 079°57'0 0.0
2018-Jan-27 20:42N 09°22' W 079°57'0 0.0
2018-Jan-27 20:30N 09°22' W 079°57'0 0.0
2018-Jan-27 18:21N 09°22' W 079°57'0 0.0
2018-Jan-27 18:00N 09°22' W 079°57'0 0.0
2018-Jan-27 17:30N 09°22' W 079°57'0 0.0
2018-Jan-27 17:00N 09°22' W 079°57'0 0.0
2018-Jan-27 16:30N 09°22' W 079°57'0 0.0
2018-Jan-27 16:00N 09°22' W 079°57'0 0.0
2018-Jan-27 15:30N 09°22' W 079°57'0 0.0
2018-Jan-27 14:57N 09°22' W 079°57'0 0.0
2018-Jan-27 14:30N 09°22' W 079°57'0 0.0
2018-Jan-27 14:00N 09°22' W 079°57'0 0.0
2018-Jan-27 13:27N 09°22' W 079°57'0 0.0
2018-Jan-27 13:00N 09°22' W 079°57'0 0.0
2018-Jan-27 12:30N 09°22' W 079°57'0 0.0
2018-Jan-27 11:58N 09°22' W 079°57'0 0.0
2018-Jan-27 11:28N 09°22' W 079°57'0 0.0
2018-Jan-27 10:58N 09°22' W 079°57'0 0.0
2018-Jan-27 10:30N 09°22' W 079°57'0 0.0
2018-Jan-27 10:00N 09°22' W 079°57'0 0.0
2018-Jan-27 09:30N 09°22' W 079°57'0 0.0
2018-Jan-27 09:00N 09°22' W 079°57'0 0.0
2018-Jan-27 08:30N 09°22' W 079°57'0 0.0
2018-Jan-27 08:00N 09°22' W 079°57'0 0.0
2018-Jan-27 07:30N 09°22' W 079°57'0 0.0
2018-Jan-27 07:00N 09°22' W 079°57'0 0.0
2018-Jan-27 06:30N 09°22' W 079°57'0 0.0
2018-Jan-27 05:58N 09°22' W 079°57'0 0.0
2018-Jan-27 05:28N 09°22' W 079°57'0 0.0
2018-Jan-27 04:58N 09°22' W 079°57'0 0.0
2018-Jan-27 04:28N 09°22' W 079°57'0 0.0
2018-Jan-27 03:58N 09°22' W 079°57'0 0.0
2018-Jan-27 03:31N 09°22' W 079°57'0 0.0
2018-Jan-27 02:57N 09°22' W 079°57'0 0.0
2018-Jan-27 02:21N 09°22' W 079°57'0 0.0
2018-Jan-27 01:57N 09°22' W 079°57'0 0.0
2018-Jan-27 01:30N 09°22' W 079°57'0 0.0
2018-Jan-27 00:54N 09°22' W 079°57'0 0.0
2018-Jan-27 00:30N 09°22' W 079°57'0 0.0
2018-Jan-26 23:57N 09°22' W 079°57'0 0.0
2018-Jan-26 23:09N 09°22' W 079°57'0 0.0
2018-Jan-26 23:00N 09°22' W 079°57'0 0.0
2018-Jan-26 22:27N 09°22' W 079°57'0 0.0
2018-Jan-26 22:00N 09°22' W 079°57'0 0.0
2018-Jan-26 21:25N 09°22' W 079°57'0 0.0
2018-Jan-26 20:58N 09°22' W 079°57'0 0.0
2018-Jan-26 20:28N 09°22' W 079°57'0 0.0
2018-Jan-26 19:58N 09°22' W 079°57'0 0.0
2018-Jan-26 19:25N 09°22' W 079°57'0 0.0
2018-Jan-26 18:58N 09°22' W 079°57'0 0.0
2018-Jan-26 18:28N 09°22' W 079°57'0 0.0
2018-Jan-26 17:58N 09°22' W 079°57'0 0.0
2018-Jan-26 17:25N 09°22' W 079°57'0 0.0
2018-Jan-26 16:58N 09°22' W 079°57'0 0.0
2018-Jan-26 16:28N 09°22' W 079°57'0 0.0
2018-Jan-26 15:59N 09°22' W 079°57'0 0.0
2018-Jan-26 15:29N 09°22' W 079°57'0 0.0
2018-Jan-26 14:59N 09°22' W 079°57'0 0.0
2018-Jan-26 14:29N 09°22' W 079°57'0 0.0
2018-Jan-26 13:59N 09°22' W 079°57'0 0.0
2018-Jan-26 13:29N 09°22' W 079°57'0 0.0
2018-Jan-26 12:56N 09°22' W 079°57'0 0.0
2018-Jan-26 12:30N 09°22' W 079°57'0 0.0
2018-Jan-26 11:59N 09°22' W 079°57'0 0.0
2018-Jan-26 11:29N 09°22' W 079°57'0 0.0
2018-Jan-26 10:59N 09°22' W 079°57'0 0.0
2018-Jan-26 10:29N 09°22' W 079°57'0 0.0
2018-Jan-26 09:59N 09°22' W 079°57'0 0.0
2018-Jan-26 09:29N 09°22' W 079°57'0 0.0
2018-Jan-26 08:59N 09°22' W 079°57'0 0.0
2018-Jan-26 08:29N 09°22' W 079°57'0 0.0
2018-Jan-26 07:59N 09°22' W 079°57'0 0.0
2018-Jan-26 07:26N 09°22' W 079°57'0 0.0
2018-Jan-26 06:59N 09°22' W 079°57'0 0.0
2018-Jan-26 06:29N 09°22' W 079°57'0 0.0
2018-Jan-26 05:56N 09°22' W 079°57'0 0.0
2018-Jan-26 05:29N 09°22' W 079°57'0 0.0
2018-Jan-26 04:59N 09°22' W 079°57'0 0.0
2018-Jan-26 04:29N 09°22' W 079°57'0 0.0
2018-Jan-26 03:59N 09°22' W 079°57'0 0.0
2018-Jan-26 03:29N 09°22' W 079°57'0 0.0
2018-Jan-26 02:56N 09°22' W 079°57'0 0.0
2018-Jan-26 02:17N 09°22' W 079°57'0 0.0
2018-Jan-26 01:59N 09°22' W 079°57'0 0.0
2018-Jan-26 01:26N 09°22' W 079°57'0 0.0
2018-Jan-26 00:56N 09°22' W 079°57'0 0.0
2018-Jan-26 00:29N 09°22' W 079°57'0 0.0
2018-Jan-25 23:59N 09°22' W 079°57'0 0.0
2018-Jan-25 23:26N 09°22' W 079°57'0 0.0
2018-Jan-25 22:50N 09°22' W 079°57'0 0.0
2018-Jan-25 22:26N 09°22' W 079°57'0 0.0
2018-Jan-25 21:58N 09°22' W 079°57'0 0.0
2018-Jan-25 21:28N 09°22' W 079°57'0 0.0
2018-Jan-25 20:58N 09°22' W 079°57'0 0.0
2018-Jan-25 20:28N 09°22' W 079°57'0 0.0
2018-Jan-25 20:00N 09°22' W 079°57'0 0.0
2018-Jan-25 19:30N 09°22' W 079°57'0 0.2
2018-Jan-25 18:53N 09°22' W 079°57'2 4.1
2018-Jan-25 18:30N 09°23' W 079°56'3 5.9
2018-Jan-25 17:59N 09°25' W 079°53'  

Dump ship's entire track history